sensor_id;sensor_type;location;lat;lon;timestamp;temperature;humidity
21061;DHT22;10689;50.836;3.266;2022-08-06T00:00:48;14.60;99.90
21061;DHT22;10689;50.836;3.266;2022-08-06T00:03:14;14.60;99.90
21061;DHT22;10689;50.836;3.266;2022-08-06T00:05:40;14.50;99.90
21061;DHT22;10689;50.836;3.266;2022-08-06T00:08:05;14.50;99.90
21061;DHT22;10689;50.836;3.266;2022-08-06T00:10:31;14.60;99.90
21061;DHT22;10689;50.836;3.266;2022-08-06T00:12:58;14.70;99.90
21061;DHT22;10689;50.836;3.266;2022-08-06T00:15:24;14.60;99.90
21061;DHT22;10689;50.836;3.266;2022-08-06T00:17:49;14.80;99.90
21061;DHT22;10689;50.836;3.266;2022-08-06T00:20:15;14.80;99.90
21061;DHT22;10689;50.836;3.266;2022-08-06T00:22:42;14.70;99.90
21061;DHT22;10689;50.836;3.266;2022-08-06T00:25:09;14.90;99.90
21061;DHT22;10689;50.836;3.266;2022-08-06T00:27:38;15.00;99.90
21061;DHT22;10689;50.836;3.266;2022-08-06T00:30:09;14.90;99.90
21061;DHT22;10689;50.836;3.266;2022-08-06T00:32:35;14.80;99.90
21061;DHT22;10689;50.836;3.266;2022-08-06T00:35:01;14.90;99.90
21061;DHT22;10689;50.836;3.266;2022-08-06T00:37:26;14.90;99.90
21061;DHT22;10689;50.836;3.266;2022-08-06T00:39:54;15.00;99.90
21061;DHT22;10689;50.836;3.266;2022-08-06T00:42:21;14.90;99.90
21061;DHT22;10689;50.836;3.266;2022-08-06T00:44:47;14.80;99.90
21061;DHT22;10689;50.836;3.266;2022-08-06T00:47:12;14.80;99.90
21061;DHT22;10689;50.836;3.266;2022-08-06T00:49:38;14.60;99.90
21061;DHT22;10689;50.836;3.266;2022-08-06T00:52:04;14.50;99.90
21061;DHT22;10689;50.836;3.266;2022-08-06T00:54:30;14.60;99.90
21061;DHT22;10689;50.836;3.266;2022-08-06T00:56:55;14.60;99.90
21061;DHT22;10689;50.836;3.266;2022-08-06T00:59:21;14.50;99.90
21061;DHT22;10689;50.836;3.266;2022-08-06T01:01:47;14.40;99.90
21061;DHT22;10689;50.836;3.266;2022-08-06T01:04:12;14.50;99.90
21061;DHT22;10689;50.836;3.266;2022-08-06T01:06:39;14.60;99.90
21061;DHT22;10689;50.836;3.266;2022-08-06T01:09:05;14.60;99.90
21061;DHT22;10689;50.836;3.266;2022-08-06T01:11:30;14.60;99.90
21061;DHT22;10689;50.836;3.266;2022-08-06T01:13:56;14.60;99.90
21061;DHT22;10689;50.836;3.266;2022-08-06T01:16:40;14.60;99.90
21061;DHT22;10689;50.836;3.266;2022-08-06T01:22:07;14.50;99.90
21061;DHT22;10689;50.836;3.266;2022-08-06T01:27:49;14.30;99.90
21061;DHT22;10689;50.836;3.266;2022-08-06T01:30:18;14.30;99.90
21061;DHT22;10689;50.836;3.266;2022-08-06T01:33:07;14.20;99.90
21061;DHT22;10689;50.836;3.266;2022-08-06T01:35:38;14.10;99.90
21061;DHT22;10689;50.836;3.266;2022-08-06T01:38:15;14.00;99.90
21061;DHT22;10689;50.836;3.266;2022-08-06T01:40:44;14.00;99.90
21061;DHT22;10689;50.836;3.266;2022-08-06T01:43:14;14.00;99.90
21061;DHT22;10689;50.836;3.266;2022-08-06T01:45:41;13.90;99.90
21061;DHT22;10689;50.836;3.266;2022-08-06T01:48:13;13.80;99.90
21061;DHT22;10689;50.836;3.266;2022-08-06T01:50:44;13.80;99.90
21061;DHT22;10689;50.836;3.266;2022-08-06T01:53:14;13.80;99.90
21061;DHT22;10689;50.836;3.266;2022-08-06T01:55:46;13.80;99.90
21061;DHT22;10689;50.836;3.266;2022-08-06T01:58:15;13.80;99.90
21061;DHT22;10689;50.836;3.266;2022-08-06T02:00:46;13.90;99.90
21061;DHT22;10689;50.836;3.266;2022-08-06T02:03:21;14.10;99.90
21061;DHT22;10689;50.836;3.266;2022-08-06T02:05:49;14.10;99.90
21061;DHT22;10689;50.836;3.266;2022-08-06T02:08:18;14.00;99.90
21061;DHT22;10689;50.836;3.266;2022-08-06T02:10:45;14.10;99.90
21061;DHT22;10689;50.836;3.266;2022-08-06T02:13:13;14.10;99.90
21061;DHT22;10689;50.836;3.266;2022-08-06T02:15:42;14.10;99.90
21061;DHT22;10689;50.836;3.266;2022-08-06T02:18:09;14.20;99.90
21061;DHT22;10689;50.836;3.266;2022-08-06T02:20:42;14.20;99.90
21061;DHT22;10689;50.836;3.266;2022-08-06T02:23:13;14.00;99.90
21061;DHT22;10689;50.836;3.266;2022-08-06T02:25:42;13.90;99.90
21061;DHT22;10689;50.836;3.266;2022-08-06T02:28:09;13.90;99.90
21061;DHT22;10689;50.836;3.266;2022-08-06T02:30:40;13.90;99.90
21061;DHT22;10689;50.836;3.266;2022-08-06T02:33:06;14.00;99.90
21061;DHT22;10689;50.836;3.266;2022-08-06T02:35:39;14.00;99.90
21061;DHT22;10689;50.836;3.266;2022-08-06T02:38:11;14.10;99.90
21061;DHT22;10689;50.836;3.266;2022-08-06T02:40:50;14.10;99.90
21061;DHT22;10689;50.836;3.266;2022-08-06T02:43:19;14.10;99.90
21061;DHT22;10689;50.836;3.266;2022-08-06T02:46:14;14.00;99.90
21061;DHT22;10689;50.836;3.266;2022-08-06T02:48:58;14.00;99.90
21061;DHT22;10689;50.836;3.266;2022-08-06T02:51:41;13.90;99.90
21061;DHT22;10689;50.836;3.266;2022-08-06T02:54:14;13.80;99.90
21061;DHT22;10689;50.836;3.266;2022-08-06T02:56:45;13.80;99.90
21061;DHT22;10689;50.836;3.266;2022-08-06T02:59:15;13.60;99.90
21061;DHT22;10689;50.836;3.266;2022-08-06T03:01:49;13.60;99.90
21061;DHT22;10689;50.836;3.266;2022-08-06T03:04:16;13.60;99.90
21061;DHT22;10689;50.836;3.266;2022-08-06T03:06:46;13.60;99.90
21061;DHT22;10689;50.836;3.266;2022-08-06T03:09:13;13.60;99.90
21061;DHT22;10689;50.836;3.266;2022-08-06T03:11:40;13.60;99.90
21061;DHT22;10689;50.836;3.266;2022-08-06T03:14:09;13.60;99.90
21061;DHT22;10689;50.836;3.266;2022-08-06T03:16:36;13.50;99.90
21061;DHT22;10689;50.836;3.266;2022-08-06T03:19:04;13.50;99.90
21061;DHT22;10689;50.836;3.266;2022-08-06T03:21:30;13.50;99.90
21061;DHT22;10689;50.836;3.266;2022-08-06T03:23:58;13.50;99.90
21061;DHT22;10689;50.836;3.266;2022-08-06T03:26:26;13.50;99.90
21061;DHT22;10689;50.836;3.266;2022-08-06T03:28:54;13.50;99.90
21061;DHT22;10689;50.836;3.266;2022-08-06T03:31:22;13.50;99.90
21061;DHT22;10689;50.836;3.266;2022-08-06T03:33:49;13.40;99.90
21061;DHT22;10689;50.836;3.266;2022-08-06T03:36:16;13.30;99.90
21061;DHT22;10689;50.836;3.266;2022-08-06T03:38:53;13.30;99.90
21061;DHT22;10689;50.836;3.266;2022-08-06T03:41:20;13.20;99.90
21061;DHT22;10689;50.836;3.266;2022-08-06T03:43:46;13.30;99.90
21061;DHT22;10689;50.836;3.266;2022-08-06T03:46:15;13.40;99.90
21061;DHT22;10689;50.836;3.266;2022-08-06T03:48:42;13.30;99.90
21061;DHT22;10689;50.836;3.266;2022-08-06T03:51:13;13.10;99.90
21061;DHT22;10689;50.836;3.266;2022-08-06T03:53:41;13.10;99.90
21061;DHT22;10689;50.836;3.266;2022-08-06T03:56:10;13.20;99.90
21061;DHT22;10689;50.836;3.266;2022-08-06T03:58:38;13.20;99.90
21061;DHT22;10689;50.836;3.266;2022-08-06T04:01:09;13.40;99.90
21061;DHT22;10689;50.836;3.266;2022-08-06T04:03:36;13.60;99.90
21061;DHT22;10689;50.836;3.266;2022-08-06T04:06:03;13.70;99.90
21061;DHT22;10689;50.836;3.266;2022-08-06T04:08:32;13.60;99.90
21061;DHT22;10689;50.836;3.266;2022-08-06T04:10:59;13.50;99.90
21061;DHT22;10689;50.836;3.266;2022-08-06T04:13:27;13.50;99.90
21061;DHT22;10689;50.836;3.266;2022-08-06T04:15:54;13.50;99.90
21061;DHT22;10689;50.836;3.266;2022-08-06T04:18:24;13.50;99.90
21061;DHT22;10689;50.836;3.266;2022-08-06T04:20:52;13.60;99.90
21061;DHT22;10689;50.836;3.266;2022-08-06T04:23:19;13.70;99.90
21061;DHT22;10689;50.836;3.266;2022-08-06T04:25:49;13.80;99.90
21061;DHT22;10689;50.836;3.266;2022-08-06T04:28:17;13.80;99.90
21061;DHT22;10689;50.836;3.266;2022-08-06T04:30:45;13.70;99.90
21061;DHT22;10689;50.836;3.266;2022-08-06T04:33:13;13.70;99.90
21061;DHT22;10689;50.836;3.266;2022-08-06T04:35:40;13.60;99.90
21061;DHT22;10689;50.836;3.266;2022-08-06T04:38:08;13.70;99.90
21061;DHT22;10689;50.836;3.266;2022-08-06T04:40:36;13.70;99.90
21061;DHT22;10689;50.836;3.266;2022-08-06T04:43:06;13.70;99.90
21061;DHT22;10689;50.836;3.266;2022-08-06T04:45:33;13.80;99.90
21061;DHT22;10689;50.836;3.266;2022-08-06T04:48:00;13.80;99.90
21061;DHT22;10689;50.836;3.266;2022-08-06T04:50:29;13.90;99.90
21061;DHT22;10689;50.836;3.266;2022-08-06T04:53:07;14.10;99.90
21061;DHT22;10689;50.836;3.266;2022-08-06T04:55:33;14.10;99.90
21061;DHT22;10689;50.836;3.266;2022-08-06T04:58:01;14.10;99.90
21061;DHT22;10689;50.836;3.266;2022-08-06T05:00:27;14.20;99.90
21061;DHT22;10689;50.836;3.266;2022-08-06T05:02:53;14.20;99.90
21061;DHT22;10689;50.836;3.266;2022-08-06T05:05:20;14.20;99.90
21061;DHT22;10689;50.836;3.266;2022-08-06T05:07:47;14.20;99.90
21061;DHT22;10689;50.836;3.266;2022-08-06T05:10:16;14.20;99.90
21061;DHT22;10689;50.836;3.266;2022-08-06T05:12:46;14.20;99.90
21061;DHT22;10689;50.836;3.266;2022-08-06T05:15:27;14.30;99.90
21061;DHT22;10689;50.836;3.266;2022-08-06T05:18:18;14.40;99.90
21061;DHT22;10689;50.836;3.266;2022-08-06T05:20:49;14.50;99.90
21061;DHT22;10689;50.836;3.266;2022-08-06T05:23:27;14.50;99.90
21061;DHT22;10689;50.836;3.266;2022-08-06T05:25:54;14.70;99.90
21061;DHT22;10689;50.836;3.266;2022-08-06T05:28:19;14.80;99.90
21061;DHT22;10689;50.836;3.266;2022-08-06T05:30:48;14.80;99.90
21061;DHT22;10689;50.836;3.266;2022-08-06T05:33:29;15.00;99.90
21061;DHT22;10689;50.836;3.266;2022-08-06T05:35:57;15.10;99.90
21061;DHT22;10689;50.836;3.266;2022-08-06T05:38:23;15.30;99.90
21061;DHT22;10689;50.836;3.266;2022-08-06T05:40:51;15.40;99.90
21061;DHT22;10689;50.836;3.266;2022-08-06T05:43:17;15.50;99.90
21061;DHT22;10689;50.836;3.266;2022-08-06T05:45:43;15.70;99.90
21061;DHT22;10689;50.836;3.266;2022-08-06T05:48:11;15.80;99.90
21061;DHT22;10689;50.836;3.266;2022-08-06T05:50:44;15.90;99.90
21061;DHT22;10689;50.836;3.266;2022-08-06T05:53:15;16.00;99.90
21061;DHT22;10689;50.836;3.266;2022-08-06T05:55:49;16.10;99.90
21061;DHT22;10689;50.836;3.266;2022-08-06T05:58:43;16.30;99.90
21061;DHT22;10689;50.836;3.266;2022-08-06T06:01:07;16.40;99.90
21061;DHT22;10689;50.836;3.266;2022-08-06T06:03:37;16.50;99.90
21061;DHT22;10689;50.836;3.266;2022-08-06T06:06:04;16.60;99.90
21061;DHT22;10689;50.836;3.266;2022-08-06T06:08:30;16.60;99.90
21061;DHT22;10689;50.836;3.266;2022-08-06T06:10:56;16.80;99.90
21061;DHT22;10689;50.836;3.266;2022-08-06T06:13:23;17.00;99.90
21061;DHT22;10689;50.836;3.266;2022-08-06T06:16:22;17.20;99.90
21061;DHT22;10689;50.836;3.266;2022-08-06T06:19:02;17.30;99.90
21061;DHT22;10689;50.836;3.266;2022-08-06T06:24:27;17.70;99.90
21061;DHT22;10689;50.836;3.266;2022-08-06T06:27:00;17.90;99.90
21061;DHT22;10689;50.836;3.266;2022-08-06T06:30:06;18.00;99.90
21061;DHT22;10689;50.836;3.266;2022-08-06T06:33:09;18.10;99.90
21061;DHT22;10689;50.836;3.266;2022-08-06T06:35:48;18.30;99.90
21061;DHT22;10689;50.836;3.266;2022-08-06T06:44:28;18.80;99.90
21061;DHT22;10689;50.836;3.266;2022-08-06T06:47:07;19.00;99.90
21061;DHT22;10689;50.836;3.266;2022-08-06T06:49:58;19.20;99.90
21061;DHT22;10689;50.836;3.266;2022-08-06T06:52:33;19.40;99.90
21061;DHT22;10689;50.836;3.266;2022-08-06T06:55:09;19.50;99.90
21061;DHT22;10689;50.836;3.266;2022-08-06T06:57:41;19.50;99.90
21061;DHT22;10689;50.836;3.266;2022-08-06T07:00:08;19.70;99.90
21061;DHT22;10689;50.836;3.266;2022-08-06T07:02:37;19.70;99.90
21061;DHT22;10689;50.836;3.266;2022-08-06T07:05:07;19.60;99.90
21061;DHT22;10689;50.836;3.266;2022-08-06T07:07:37;19.80;99.90
21061;DHT22;10689;50.836;3.266;2022-08-06T07:10:08;19.90;99.90
21061;DHT22;10689;50.836;3.266;2022-08-06T07:12:34;19.90;99.90
21061;DHT22;10689;50.836;3.266;2022-08-06T07:15:05;20.00;99.90
21061;DHT22;10689;50.836;3.266;2022-08-06T07:17:33;20.10;99.90
21061;DHT22;10689;50.836;3.266;2022-08-06T07:20:03;20.00;99.90
21061;DHT22;10689;50.836;3.266;2022-08-06T07:22:31;20.20;99.90
21061;DHT22;10689;50.836;3.266;2022-08-06T07:25:00;20.10;99.90
21061;DHT22;10689;50.836;3.266;2022-08-06T07:27:30;20.00;99.90
21061;DHT22;10689;50.836;3.266;2022-08-06T07:29:57;20.00;99.90
21061;DHT22;10689;50.836;3.266;2022-08-06T07:32:23;20.10;99.90
21061;DHT22;10689;50.836;3.266;2022-08-06T07:34:50;20.10;99.90
21061;DHT22;10689;50.836;3.266;2022-08-06T07:37:18;20.10;99.90
21061;DHT22;10689;50.836;3.266;2022-08-06T07:39:47;20.10;99.90
21061;DHT22;10689;50.836;3.266;2022-08-06T07:42:16;20.10;99.90
21061;DHT22;10689;50.836;3.266;2022-08-06T07:44:47;20.10;99.90
21061;DHT22;10689;50.836;3.266;2022-08-06T07:47:17;20.10;99.90
21061;DHT22;10689;50.836;3.266;2022-08-06T07:49:49;20.10;99.90
21061;DHT22;10689;50.836;3.266;2022-08-06T07:52:15;20.10;99.90
21061;DHT22;10689;50.836;3.266;2022-08-06T07:54:43;20.20;99.90
21061;DHT22;10689;50.836;3.266;2022-08-06T07:57:10;20.40;99.90
21061;DHT22;10689;50.836;3.266;2022-08-06T07:59:36;20.50;99.90
21061;DHT22;10689;50.836;3.266;2022-08-06T08:02:03;20.60;99.90
21061;DHT22;10689;50.836;3.266;2022-08-06T08:04:30;20.80;99.90
21061;DHT22;10689;50.836;3.266;2022-08-06T08:07:15;20.90;99.90
21061;DHT22;10689;50.836;3.266;2022-08-06T08:09:44;21.30;99.90
21061;DHT22;10689;50.836;3.266;2022-08-06T08:12:17;21.40;99.90
21061;DHT22;10689;50.836;3.266;2022-08-06T08:14:44;21.50;99.90
21061;DHT22;10689;50.836;3.266;2022-08-06T08:17:10;21.60;99.90
21061;DHT22;10689;50.836;3.266;2022-08-06T08:19:36;21.70;99.90
21061;DHT22;10689;50.836;3.266;2022-08-06T08:22:04;21.80;99.90
21061;DHT22;10689;50.836;3.266;2022-08-06T08:24:33;21.80;99.90
21061;DHT22;10689;50.836;3.266;2022-08-06T08:27:00;21.70;99.90
21061;DHT22;10689;50.836;3.266;2022-08-06T08:29:26;21.60;99.90
21061;DHT22;10689;50.836;3.266;2022-08-06T08:31:52;21.50;99.90
21061;DHT22;10689;50.836;3.266;2022-08-06T08:34:17;21.50;99.90
21061;DHT22;10689;50.836;3.266;2022-08-06T08:36:43;21.80;99.90
21061;DHT22;10689;50.836;3.266;2022-08-06T08:39:09;22.00;99.90
21061;DHT22;10689;50.836;3.266;2022-08-06T08:41:50;22.10;99.90
21061;DHT22;10689;50.836;3.266;2022-08-06T08:44:23;22.20;99.90
21061;DHT22;10689;50.836;3.266;2022-08-06T08:46:57;22.10;99.90
21061;DHT22;10689;50.836;3.266;2022-08-06T08:49:40;22.20;99.90
21061;DHT22;10689;50.836;3.266;2022-08-06T08:52:16;22.50;99.90
21061;DHT22;10689;50.836;3.266;2022-08-06T08:54:46;22.70;99.90
21061;DHT22;10689;50.836;3.266;2022-08-06T08:57:14;22.70;99.90
21061;DHT22;10689;50.836;3.266;2022-08-06T08:59:41;22.60;99.90
21061;DHT22;10689;50.836;3.266;2022-08-06T09:02:11;22.70;99.90
21061;DHT22;10689;50.836;3.266;2022-08-06T09:04:38;22.60;99.90
21061;DHT22;10689;50.836;3.266;2022-08-06T09:07:06;22.70;99.90
21061;DHT22;10689;50.836;3.266;2022-08-06T09:09:33;22.80;99.90
21061;DHT22;10689;50.836;3.266;2022-08-06T09:12:00;23.10;99.90
21061;DHT22;10689;50.836;3.266;2022-08-06T09:14:26;23.00;99.90
21061;DHT22;10689;50.836;3.266;2022-08-06T09:16:52;22.90;99.90
21061;DHT22;10689;50.836;3.266;2022-08-06T09:19:18;22.60;99.90
21061;DHT22;10689;50.836;3.266;2022-08-06T09:21:44;22.60;99.90
21061;DHT22;10689;50.836;3.266;2022-08-06T09:24:10;22.80;99.90
21061;DHT22;10689;50.836;3.266;2022-08-06T09:26:36;22.90;99.90
21061;DHT22;10689;50.836;3.266;2022-08-06T09:29:47;22.90;99.90
21061;DHT22;10689;50.836;3.266;2022-08-06T09:32:02;22.90;99.90
21061;DHT22;10689;50.836;3.266;2022-08-06T09:34:37;22.60;99.90
21061;DHT22;10689;50.836;3.266;2022-08-06T09:37:04;22.90;99.90
21061;DHT22;10689;50.836;3.266;2022-08-06T09:39:34;22.80;99.90
21061;DHT22;10689;50.836;3.266;2022-08-06T09:42:03;22.60;99.90
21061;DHT22;10689;50.836;3.266;2022-08-06T09:44:29;22.60;99.90
21061;DHT22;10689;50.836;3.266;2022-08-06T09:46:55;22.70;99.90
21061;DHT22;10689;50.836;3.266;2022-08-06T09:49:23;22.80;99.90
21061;DHT22;10689;50.836;3.266;2022-08-06T09:51:49;23.10;99.90
21061;DHT22;10689;50.836;3.266;2022-08-06T09:54:14;23.30;99.90
21061;DHT22;10689;50.836;3.266;2022-08-06T09:56:45;23.40;99.90
21061;DHT22;10689;50.836;3.266;2022-08-06T09:59:20;23.30;99.90
21061;DHT22;10689;50.836;3.266;2022-08-06T10:01:47;23.30;99.90
21061;DHT22;10689;50.836;3.266;2022-08-06T10:04:27;23.30;99.90
21061;DHT22;10689;50.836;3.266;2022-08-06T10:06:57;23.40;99.90
21061;DHT22;10689;50.836;3.266;2022-08-06T10:09:24;23.60;99.90
21061;DHT22;10689;50.836;3.266;2022-08-06T10:11:50;23.70;99.90
21061;DHT22;10689;50.836;3.266;2022-08-06T10:14:27;23.90;99.90
21061;DHT22;10689;50.836;3.266;2022-08-06T10:17:20;24.20;99.90
21061;DHT22;10689;50.836;3.266;2022-08-06T10:20:04;24.40;99.90
21061;DHT22;10689;50.836;3.266;2022-08-06T10:22:30;24.60;99.90
21061;DHT22;10689;50.836;3.266;2022-08-06T10:25:00;24.70;99.90
21061;DHT22;10689;50.836;3.266;2022-08-06T10:27:30;24.80;99.90
21061;DHT22;10689;50.836;3.266;2022-08-06T10:30:02;24.80;99.90
21061;DHT22;10689;50.836;3.266;2022-08-06T10:32:47;24.80;99.90
21061;DHT22;10689;50.836;3.266;2022-08-06T10:35:17;24.70;99.90
21061;DHT22;10689;50.836;3.266;2022-08-06T10:37:47;24.70;99.90
21061;DHT22;10689;50.836;3.266;2022-08-06T10:40:15;24.60;99.90
21061;DHT22;10689;50.836;3.266;2022-08-06T10:42:42;24.50;99.90
21061;DHT22;10689;50.836;3.266;2022-08-06T10:45:09;24.50;99.90
21061;DHT22;10689;50.836;3.266;2022-08-06T10:47:35;24.30;99.90
21061;DHT22;10689;50.836;3.266;2022-08-06T10:50:02;24.30;99.90
21061;DHT22;10689;50.836;3.266;2022-08-06T10:52:28;24.30;99.90
21061;DHT22;10689;50.836;3.266;2022-08-06T10:54:55;24.30;99.90
21061;DHT22;10689;50.836;3.266;2022-08-06T10:57:22;24.40;99.90
21061;DHT22;10689;50.836;3.266;2022-08-06T10:59:48;24.60;99.90
21061;DHT22;10689;50.836;3.266;2022-08-06T11:05:11;24.40;99.90
21061;DHT22;10689;50.836;3.266;2022-08-06T11:16:25;25.20;99.90
21061;DHT22;10689;50.836;3.266;2022-08-06T11:19:05;25.40;99.90
21061;DHT22;10689;50.836;3.266;2022-08-06T11:21:45;25.60;99.90
21061;DHT22;10689;50.836;3.266;2022-08-06T11:24:12;25.80;99.90
21061;DHT22;10689;50.836;3.266;2022-08-06T11:26:40;26.10;99.90
21061;DHT22;10689;50.836;3.266;2022-08-06T11:29:08;26.50;99.90
21061;DHT22;10689;50.836;3.266;2022-08-06T11:31:39;26.60;99.90
21061;DHT22;10689;50.836;3.266;2022-08-06T11:34:08;26.70;99.90
21061;DHT22;10689;50.836;3.266;2022-08-06T11:36:55;26.80;99.90
21061;DHT22;10689;50.836;3.266;2022-08-06T11:39:23;26.80;99.90
21061;DHT22;10689;50.836;3.266;2022-08-06T11:41:50;26.70;99.90
21061;DHT22;10689;50.836;3.266;2022-08-06T11:44:18;26.60;99.90
21061;DHT22;10689;50.836;3.266;2022-08-06T11:49:39;26.20;99.90
21061;DHT22;10689;50.836;3.266;2022-08-06T11:52:05;25.80;99.90
21061;DHT22;10689;50.836;3.266;2022-08-06T11:54:36;25.50;99.90
21061;DHT22;10689;50.836;3.266;2022-08-06T11:59:29;25.30;99.90
21061;DHT22;10689;50.836;3.266;2022-08-06T12:01:56;25.40;99.90
21061;DHT22;10689;50.836;3.266;2022-08-06T12:07:20;25.80;99.90
21061;DHT22;10689;50.836;3.266;2022-08-06T12:10:08;25.80;99.90
21061;DHT22;10689;50.836;3.266;2022-08-06T12:12:43;25.60;99.90
21061;DHT22;10689;50.836;3.266;2022-08-06T12:20:30;25.00;99.90
21061;DHT22;10689;50.836;3.266;2022-08-06T12:22:58;25.20;99.90
21061;DHT22;10689;50.836;3.266;2022-08-06T12:25:30;25.50;99.90
21061;DHT22;10689;50.836;3.266;2022-08-06T12:27:56;25.80;99.90
21061;DHT22;10689;50.836;3.266;2022-08-06T12:30:23;26.10;99.90
21061;DHT22;10689;50.836;3.266;2022-08-06T12:32:49;25.90;99.90
21061;DHT22;10689;50.836;3.266;2022-08-06T12:35:23;25.80;99.90
21061;DHT22;10689;50.836;3.266;2022-08-06T12:37:49;25.90;99.90
21061;DHT22;10689;50.836;3.266;2022-08-06T12:40:17;26.00;99.90
21061;DHT22;10689;50.836;3.266;2022-08-06T12:42:53;26.10;99.90
21061;DHT22;10689;50.836;3.266;2022-08-06T12:45:25;26.10;99.90
21061;DHT22;10689;50.836;3.266;2022-08-06T12:48:02;26.00;99.90
21061;DHT22;10689;50.836;3.266;2022-08-06T12:50:29;26.20;99.90
21061;DHT22;10689;50.836;3.266;2022-08-06T12:53:05;26.40;99.90
21061;DHT22;10689;50.836;3.266;2022-08-06T12:55:42;26.30;99.90
21061;DHT22;10689;50.836;3.266;2022-08-06T12:58:10;26.10;99.90
21061;DHT22;10689;50.836;3.266;2022-08-06T13:00:37;26.00;99.90
21061;DHT22;10689;50.836;3.266;2022-08-06T13:03:04;25.80;99.90
21061;DHT22;10689;50.836;3.266;2022-08-06T13:05:31;25.90;99.90
21061;DHT22;10689;50.836;3.266;2022-08-06T13:07:59;26.20;99.90
21061;DHT22;10689;50.836;3.266;2022-08-06T13:10:25;26.40;99.90
21061;DHT22;10689;50.836;3.266;2022-08-06T13:13:00;26.40;99.90
21061;DHT22;10689;50.836;3.266;2022-08-06T13:15:26;26.10;99.90
21061;DHT22;10689;50.836;3.266;2022-08-06T13:18:07;25.40;99.90
21061;DHT22;10689;50.836;3.266;2022-08-06T13:20:43;25.00;99.90
21061;DHT22;10689;50.836;3.266;2022-08-06T13:23:10;25.00;99.90
21061;DHT22;10689;50.836;3.266;2022-08-06T13:25:44;25.00;99.90
21061;DHT22;10689;50.836;3.266;2022-08-06T13:28:15;25.00;99.90
21061;DHT22;10689;50.836;3.266;2022-08-06T13:30:42;25.60;99.90
21061;DHT22;10689;50.836;3.266;2022-08-06T13:35:41;25.90;99.90
21061;DHT22;10689;50.836;3.266;2022-08-06T13:38:07;26.10;99.90
21061;DHT22;10689;50.836;3.266;2022-08-06T13:40:53;26.60;99.90
21061;DHT22;10689;50.836;3.266;2022-08-06T13:43:19;26.70;99.90
21061;DHT22;10689;50.836;3.266;2022-08-06T13:45:45;27.00;99.90
21061;DHT22;10689;50.836;3.266;2022-08-06T13:48:12;27.50;99.90
21061;DHT22;10689;50.836;3.266;2022-08-06T13:50:42;27.40;99.90
21061;DHT22;10689;50.836;3.266;2022-08-06T13:53:10;27.70;99.90
21061;DHT22;10689;50.836;3.266;2022-08-06T13:55:36;27.10;99.90
21061;DHT22;10689;50.836;3.266;2022-08-06T13:58:02;26.50;99.90
21061;DHT22;10689;50.836;3.266;2022-08-06T14:00:29;26.30;99.90
21061;DHT22;10689;50.836;3.266;2022-08-06T14:02:55;26.50;99.90
21061;DHT22;10689;50.836;3.266;2022-08-06T14:05:21;27.20;99.90
21061;DHT22;10689;50.836;3.266;2022-08-06T14:07:48;28.00;99.90
21061;DHT22;10689;50.836;3.266;2022-08-06T14:10:14;28.80;99.90
21061;DHT22;10689;50.836;3.266;2022-08-06T14:12:41;29.70;99.90
21061;DHT22;10689;50.836;3.266;2022-08-06T14:15:07;30.20;99.90
21061;DHT22;10689;50.836;3.266;2022-08-06T14:17:33;30.00;99.90
21061;DHT22;10689;50.836;3.266;2022-08-06T14:19:59;30.00;99.90
21061;DHT22;10689;50.836;3.266;2022-08-06T14:22:25;29.70;99.90
21061;DHT22;10689;50.836;3.266;2022-08-06T14:24:51;29.80;99.90
21061;DHT22;10689;50.836;3.266;2022-08-06T14:27:17;30.00;99.90
21061;DHT22;10689;50.836;3.266;2022-08-06T14:29:43;30.20;99.90
21061;DHT22;10689;50.836;3.266;2022-08-06T14:32:09;30.10;99.90
21061;DHT22;10689;50.836;3.266;2022-08-06T14:34:35;29.90;99.90
21061;DHT22;10689;50.836;3.266;2022-08-06T14:37:02;29.60;99.90
21061;DHT22;10689;50.836;3.266;2022-08-06T14:39:28;29.20;99.90
21061;DHT22;10689;50.836;3.266;2022-08-06T14:41:53;29.40;99.90
21061;DHT22;10689;50.836;3.266;2022-08-06T14:44:38;29.10;99.90
21061;DHT22;10689;50.836;3.266;2022-08-06T14:47:23;28.40;99.90
21061;DHT22;10689;50.836;3.266;2022-08-06T14:49:48;28.10;99.90
21061;DHT22;10689;50.836;3.266;2022-08-06T14:52:14;28.60;99.90
21061;DHT22;10689;50.836;3.266;2022-08-06T14:54:40;29.10;99.90
21061;DHT22;10689;50.836;3.266;2022-08-06T14:57:08;29.00;99.90
21061;DHT22;10689;50.836;3.266;2022-08-06T14:59:34;29.00;99.90
21061;DHT22;10689;50.836;3.266;2022-08-06T15:02:00;29.30;99.90
21061;DHT22;10689;50.836;3.266;2022-08-06T15:04:26;29.80;99.90
21061;DHT22;10689;50.836;3.266;2022-08-06T15:06:52;31.00;99.90
21061;DHT22;10689;50.836;3.266;2022-08-06T15:09:19;32.10;99.90
21061;DHT22;10689;50.836;3.266;2022-08-06T15:11:45;32.70;99.90
21061;DHT22;10689;50.836;3.266;2022-08-06T15:14:10;32.20;99.40
21061;DHT22;10689;50.836;3.266;2022-08-06T15:16:36;30.80;99.90
21061;DHT22;10689;50.836;3.266;2022-08-06T15:19:02;29.60;99.90
21061;DHT22;10689;50.836;3.266;2022-08-06T15:21:28;29.00;99.90
21061;DHT22;10689;50.836;3.266;2022-08-06T15:23:55;28.50;99.90
21061;DHT22;10689;50.836;3.266;2022-08-06T15:26:22;27.80;99.90
21061;DHT22;10689;50.836;3.266;2022-08-06T15:28:48;27.00;99.90
21061;DHT22;10689;50.836;3.266;2022-08-06T15:31:14;26.60;99.90
21061;DHT22;10689;50.836;3.266;2022-08-06T15:33:40;26.20;99.90
21061;DHT22;10689;50.836;3.266;2022-08-06T15:36:06;26.20;99.90
21061;DHT22;10689;50.836;3.266;2022-08-06T15:38:32;26.20;99.90
21061;DHT22;10689;50.836;3.266;2022-08-06T15:40:58;26.10;99.90
21061;DHT22;10689;50.836;3.266;2022-08-06T15:43:24;26.00;99.90
21061;DHT22;10689;50.836;3.266;2022-08-06T15:45:50;25.90;99.90
21061;DHT22;10689;50.836;3.266;2022-08-06T15:48:16;25.80;99.90
21061;DHT22;10689;50.836;3.266;2022-08-06T15:50:44;25.90;99.90
21061;DHT22;10689;50.836;3.266;2022-08-06T15:53:12;26.20;99.90
21061;DHT22;10689;50.836;3.266;2022-08-06T15:55:38;26.00;99.90
21061;DHT22;10689;50.836;3.266;2022-08-06T15:58:03;25.80;99.90
21061;DHT22;10689;50.836;3.266;2022-08-06T16:00:29;26.50;99.90
21061;DHT22;10689;50.836;3.266;2022-08-06T16:02:56;27.20;99.90
21061;DHT22;10689;50.836;3.266;2022-08-06T16:05:22;27.90;99.90
21061;DHT22;10689;50.836;3.266;2022-08-06T16:07:50;28.70;99.90
21061;DHT22;10689;50.836;3.266;2022-08-06T16:10:15;29.40;99.90
21061;DHT22;10689;50.836;3.266;2022-08-06T16:12:42;29.20;99.90
21061;DHT22;10689;50.836;3.266;2022-08-06T16:15:08;28.90;99.90
21061;DHT22;10689;50.836;3.266;2022-08-06T16:17:33;28.90;99.90
21061;DHT22;10689;50.836;3.266;2022-08-06T16:19:59;29.20;99.90
21061;DHT22;10689;50.836;3.266;2022-08-06T16:22:25;29.80;99.90
21061;DHT22;10689;50.836;3.266;2022-08-06T16:24:51;30.10;99.90
21061;DHT22;10689;50.836;3.266;2022-08-06T16:27:18;30.10;99.90